Keego Harbor, MI (48320)

12:42 AM EDT on September 05, 2015 (GMT -0400)
cass lake | | Change Station
CLOSE
Current Station
Personal Weather Station
Location: Keego Harbor, MI
Elevation: 938 ft
Nearby Weather Stations

Elev 938 ft 42.62 °N, 83.35 °W | Updated 39 seconds ago

Overcast
Overcast
71.6 °F
Feels Like 71.6 °F
N
1.0
Wind Variable Wind from East
Gusts 1.0 mph

Today
High -- | Low -- °F
--% Chance of Precip.
Yesterday
High -- | Low -- °F
Precip. -- in
7:02 AM 8:01 PM
Waning Gibbous, 52% visible
Pressure 30.06 in
Visibility 8.0 miles
Clouds Mostly Cloudy 3000 ft
Overcast 18000 ft
Dew Point 70 °F
Humidity 93%
Rainfall 0.00 in
Snow Depth Not available.
UV 0 out of 12
Pollen 9.40 out of 12
Air Quality Not available.
Flu Activity Not available.
METAR KPTK 050353Z 14004KT 8SM MIFG BKN030 OVC180 22/20 A3008 RMK AO2 SLP177 LAST AUGMENTED OBS NEXT 10Z T02220200 $
Pressure 30.06 in
Visibility 8.0 miles
Clouds Mostly Cloudy 3000 ft
Overcast 18000 ft
Dew Point 70 °F
Humidity 93%
Rainfall 0.00 in
Snow Depth Not available.
UV 0 out of 12
Pollen 9.40 out of 12
Air Quality Not available.
Flu Activity Not available.
METAR KPTK 050353Z 14004KT 8SM MIFG BKN030 OVC180 22/20 A3008 RMK AO2 SLP177 LAST AUGMENTED OBS NEXT 10Z T02220200 $

10-Day Weather Forecast

×

Almanac

Astronomy

Sep. 05, 2015 Rise Set
Actual Time
Civil Twilight
Nautical Twilight
Astronomical Twilight
Moon
Length of Visible Light
Length of Day
Tomorrow will be .
, % of the Moon is Illuminated

Today's Extremes

State Highs State Lows

Community

WunderPhotos

Upload Photos

1,852,426 photos uploaded!

WunderBlogs® & News

Nearby

Air Quality

  Air Quality AQ Index Pollutant
Not available.

Snow Depth

Station Depth Elevation

Earthquake Activity

City Distance Mag. Time & Date
Minimum magnitude displayed is 2.5.

Coastal Water Temperatures

Place Temperature

Stations

Nearby Weather Stations

Station Location Temp. Windchill Dew Point Humidity Wind Precip. Elev Updated Type